Hualapai Flat, Nevada Weather observations

Data are for 10 minute period ending at time listed.
 Day   Time   Solar   Ave.   Ave.  Ave.  Vector  Max.   Baro.   Total    
  of    of     Rad.   Air    Rel.  Wind   Wind   Wind  Press.  Precip.   
Year   Day            Temp.  Hum.  Speed  Dir.   Gust                    
2016   (PST)  Kw/m2    F      %     mph   deg.    mph    mb.     in.     
-------------------------------------------------------------------------
 120   12:30   0.38   58.8    39    7.6   322    12.3   872.1    0.00 
 120   12:40   0.52   58.8    36   11.2   303    27.2   872.0    0.00 
 120   12:50   0.51   59.0    36   10.7   317    20.7   872.0    0.00 
 120   13:00   0.40   58.2    36    9.3   314    16.8   872.0    0.00 
 120   13:10   0.41   58.1    35   13.1   297    19.9   871.9    0.00 
 120   13:20   0.33   58.2    35   11.9   309    17.9   871.8    0.00 
 120   13:30   0.37   57.5    33   13.1   313    26.2   871.7    0.00 
 120   13:40   0.37   57.6    28   11.8   301    21.9   871.7    0.00 
 120   13:50   0.18   56.7    35   10.5   329    17.8   871.6    0.00 
 120   14:00   0.17   55.2    37   13.2   334    22.0   871.7    0.00 
 120   14:10   0.25   53.5    47   20.0   335    31.1   871.9    0.00 
 120   14:20   0.32   51.3    53   18.9   344    27.0   872.1    0.00 
 120   14:30   0.60   52.8    52   16.0   341    24.5   871.9    0.00 
 120   14:40   0.77   55.4    46   18.1   348    26.2   871.8    0.00 
 120   14:50   0.74   55.9    44   17.5   348    25.6   871.6    0.00 
 120   15:00   0.69   56.9    42   13.4   335    20.6   871.5    0.00 
 120   15:10   0.61   57.6    38   12.9   330    21.6   871.4    0.00 
 120   15:20   0.48   57.2    35   15.7   328    24.9   871.3    0.00 
 120   15:30   0.53   56.8    34   17.3   326    23.2   871.3    0.00 
 120   15:40   0.56   57.5    35   15.4   326    22.3   871.3    0.00 
 120   15:50   0.53   57.1    35   17.1   337    24.0   871.4    0.00 
 120   16:00   0.36   56.6    33   15.5   322    27.2   871.4    0.00 
 120   16:10   0.45   56.1    37   19.8   330    29.2   871.5    0.00 
 120   16:20   0.40   55.2    42   21.0   335    34.0   871.5    0.00 
 120   16:30   0.40   55.0    42   17.4   343    26.8   871.7    0.00 
 120   16:40   0.36   54.7    39   18.0   332    26.1   871.8    0.00 
 120   16:50   0.33   54.5    37   15.6   332    23.2   871.9    0.00 
 120   17:00   0.30   54.6    36   16.3   328    27.8   871.9    0.00 
 120   17:10   0.19   53.1    45   20.7   351    29.2   872.1    0.00 
 120   17:20   0.24   51.6    52   20.8   358    30.5   872.3    0.00 
 120   17:30   0.20   50.0    55   19.3   357    28.6   872.4    0.00 
 120   17:40   0.18   49.6    57   20.2   340    28.1   872.7    0.00 
 120   17:50   0.19   48.1    64   18.9   342    29.6   873.1    0.00 
 120   18:00   0.19   47.6    64   21.3   353    29.9   873.3    0.00 
 120   18:10   0.14   46.5    66   20.9   351    28.4   873.6    0.00 
 120   18:20   0.07   44.7    70   19.1   350    27.0   873.8    0.00 
 120   18:30   0.03   44.1    69   13.2   344    21.7   873.7    0.00 
 120   18:40   0.02   44.7    66   10.4   316    16.7   873.6    0.00 
 120   18:50   0.01   44.6    65   10.9   311    17.2   873.5    0.00 
 120   19:00   0.00   44.3    67    8.2   324    14.0   873.6    0.00 
 120   19:10   0.00   44.0    68    5.4   314     8.6   873.6    0.00 
 120   19:20   0.00   44.4    66    7.5   322    14.0   873.7    0.00 
 120   19:30   0.00   44.8    67    8.1   337    12.3   873.8    0.00 
 120   19:40   0.00   44.6    67    5.7   319    10.5   874.0    0.00 
 120   19:50   0.00   44.3    68    7.0   313    12.4   874.1    0.00 
 120   20:00   0.00   44.0    69    8.3   307    12.1   874.3    0.00 
 120   20:10   0.00   44.0    68    7.1   320    12.3   874.4    0.00 
 120   20:20   0.00   44.3    66   10.5   346    19.4   874.5    0.00 
 120   20:30   0.00   44.4    64   13.8   344    21.3   874.6    0.00 
 120   20:40   0.00   44.2    64   11.3   353    17.4   874.8    0.00 
 120   20:50   0.00   43.6    66    9.4   353    15.3   875.0    0.00 
 120   21:00   0.00   43.3    67    9.1   350    13.7   875.1    0.00 
 120   21:10   0.00   43.4    66    9.6   347    15.1   875.1    0.00 
 120   21:20   0.00   43.4    65    9.7   352    14.2   875.1    0.00 
 120   21:30   0.00   43.1    64    8.7   343    15.0   875.0    0.00 
 120   21:40   0.00   42.8    65    7.6   333    12.4   875.0    0.00 
 120   21:50   0.00   42.8    66    8.1   337    13.9   874.9    0.00 
 120   22:00   0.00   42.9    65    9.5   328    17.0   874.7    0.00 
 120   22:10   0.00   43.2    64   11.6   336    20.5   874.7    0.00 
 120   22:20   0.00   42.8    65    9.8   337    14.1   874.8    0.00 
 120   22:30   0.00   42.4    66   10.1   341    17.3   874.8    0.00 
 120   22:40   0.00   42.5    66    8.5   348    13.2   874.9    0.00 
 120   22:50   0.00   42.6    65    9.6   357    15.9   875.0    0.00 
 120   23:00   0.00   43.3    64   12.3     2    18.2   874.9    0.00 
 120   23:10   0.00   43.6    64   12.6   360    20.0   874.9    0.00 
 120   23:20   0.00   43.4    64   12.8     3    20.0   875.0    0.00 
 120   23:30   0.00   43.1    65   12.5   358    17.9   875.1    0.00 
 120   23:40   0.00   42.9    65   12.3   353    18.9   875.1    0.00 
 120   23:50   0.00   43.2    65   12.1   347    18.9   875.1    0.00 
 121    0:00   0.00   43.4    64   12.7   348    19.3   875.1    0.00 
 121    0:10   0.00   43.6    64   11.1   350    16.2   875.2    0.00 
 121    0:20   0.00   43.7    63   12.9   351    20.4   875.2    0.00 
 121    0:30   0.00   43.8    63   12.2   350    18.5   875.3    0.00 
 121    0:40   0.00   43.8    63   12.7   353    20.2   875.3    0.00 
 121    0:50   0.00   43.9    63   14.1     1    22.0   875.3    0.00 
 121    1:00   0.00   43.9    63   11.8   359    18.5   875.4    0.00 
 121    1:10   0.00   43.9    63   10.7     4    18.2   875.5    0.00 
 121    1:20   0.00   43.8    64    9.7     5    17.5   875.6    0.00 
 121    1:30   0.00   43.7    64    9.3   354    15.9   875.7    0.00 
 121    1:40   0.00   43.6    65    9.7   348    16.3   875.6    0.00 
 121    1:50   0.00   43.6    65   10.8   354    19.1   875.6    0.00 
 121    2:00   0.00   43.7    64   15.0   358    21.3   875.5    0.00 
 121    2:10   0.00   43.7    65   14.1   354    19.6   875.7    0.00 
 121    2:20   0.00   43.6    65   13.1   354    21.0   875.7    0.00 
 121    2:30   0.00   43.5    66   13.8   355    22.3   875.6    0.00 
 121    2:40   0.00   43.3    66   14.0   357    20.4   875.6    0.00 
 121    2:50   0.00   43.1    67   12.2   359    17.8   875.7    0.00 
 121    3:00   0.00   42.8    67   11.5   359    18.8   875.7    0.00 
 121    3:10   0.00   42.7    68   11.7   350    16.9   875.8    0.00 
 121    3:20   0.00   42.6    68   12.2   349    17.6   875.7    0.00 
 121    3:30   0.00   42.2    68   10.6   351    16.7   875.7    0.00 
 121    3:40   0.00   41.9    69    9.8   345    16.4   875.7    0.00 
 121    3:50   0.00   41.7    70    9.5   349    14.7   875.6    0.00 
 121    4:00   0.00   41.7    70    9.0   349    14.2   875.5    0.00 
 121    4:10   0.00   41.6    70    8.7   345    14.2   875.5    0.00 
 121    4:20   0.00   41.5    70    9.0   351    14.7   875.5    0.00 
 121    4:30   0.00   41.9    70    9.8   358    15.3   875.5    0.00 
 121    4:40   0.00   42.2    69    9.6   346    13.7   875.6    0.00 
 121    4:50   0.00   42.2    70    8.0   334    13.1   875.8    0.00 
 121    5:00   0.00   42.3    69    8.1   323    14.2   876.0    0.00 
 121    5:10   0.01   42.1    69    8.0   326    13.2   876.1    0.00 
 121    5:20   0.03   42.4    68    9.8   326    16.8   876.2    0.00 
 121    5:30   0.04   42.7    68   10.8   335    16.5   876.2    0.00 
 121    5:40   0.11   43.0    68   11.4   335    17.0   876.3    0.00 
 121    5:50   0.10   43.2    67   12.3   335    18.6   876.4    0.00 
 121    6:00   0.17   43.7    67   12.1   335    18.4   876.6    0.00 
 121    6:10   0.25   44.7    65   12.8   338    17.8   876.7    0.00 
 121    6:20   0.29   45.6    64   12.1   336    17.6   876.8    0.00 
 121    6:30   0.33   46.3    63   11.4   336    17.9   877.0    0.00 
 121    6:40   0.34   46.3    62   12.9   334    19.1   877.0    0.00 
 121    6:50   0.31   46.3    62   12.5   344    17.3   877.2    0.00 
 121    7:00   0.26   45.8    62   13.5   349    18.9   877.3    0.00 
 121    7:10   0.33   46.1    62   11.9   350    18.2   877.3    0.00 
 121    7:20   0.32   47.2    60   13.5   355    19.0   877.4    0.00 
 121    7:30   0.47   47.2    60   12.8   356    19.6   877.6    0.00 
 121    7:40   0.31   47.7    59   12.3   352    18.1   877.6    0.00 
 121    7:50   0.29   47.1    61   11.2   352    15.4   877.7    0.00 
 121    8:00   0.30   47.2    60   11.0   347    17.1   877.7    0.00 
 121    8:10   0.28   47.3    60   11.9   347    17.5   877.7    0.00 
 121    8:20   0.27   47.5    60   11.3   343    17.3   877.8    0.00 
 121    8:30   0.50   49.0    59   10.8   350    16.2   877.7    0.00 
 121    8:40   0.53   50.0    57   10.9     1    17.2   877.7    0.00 
 121    8:50   0.53   51.0    55    8.1    29    12.9   877.7    0.00 
 121    9:00   0.56   51.1    54    9.2    20    16.4   877.7    0.00 
 121    9:10   0.55   52.4    52    7.4    30    20.8   877.8    0.00 
 121    9:20   0.01   53.3    51    8.0    56    15.3   877.8    0.00 
 121    9:30   0.57   53.7    50    6.3    20    13.3   877.9    0.00 
 121    9:40   0.17   54.2    49    5.4    60    28.2   877.9    0.00 
 121    9:50   0.67   54.3    49   10.2    59    16.4   878.0    0.00 
 121   10:00   0.46   52.7    50    9.2    50    12.9   878.1    0.00 
 121   10:10   0.35   52.5    51   10.3    61    16.9   878.0    0.00 
 121   10:20   0.64   52.5    52    9.2    56    19.8   878.0    0.00 
 121   10:30   0.20   54.5    48   13.8    62    21.0   877.9    0.00 
 121   10:40   0.59   55.4    46   10.6    76    18.9   877.9    0.00 
 121   10:50   0.60   54.7    47   11.4    69    20.0   877.9    0.00 
 121   11:00   0.58   54.2    46   10.3    58    18.6   877.9    0.00 
 121   11:10   0.57   54.9    47    8.5    89    15.4   877.8    0.00 
 121   11:20   0.66   54.8    48    9.6    48    21.5   877.8    0.00 
 121   11:30   0.80   55.2    46   10.4    68    18.7   877.7    0.00 
 121   11:40   0.95   56.3    43    7.3    63    13.1   877.5    0.00 
 121   11:50   0.62   56.8    44    8.3    59    15.4   877.5    0.00 
 121   12:00   0.80   56.3    45    8.8    60    16.4   877.4    0.00 
 121   12:10   0.87   56.6    44    8.9    58    15.6   877.4    0.00 
 121   12:20   0.81   58.0    44    9.2    52    17.4   877.3    0.00 

Return to Hualapai Flat graphs page.


Western Regional Climate Center,wrcc@dri.edu